Time;durP1;ratioP1;P1;durP2;ratioP2;P2;SDS_P1;SDS_P2;PMS_P1;PMS_P2;Temp;Humidity;BMP_temperature;BMP_pressure;BME280_temperature;BME280_humidity;BME280_pressure;Samples;Min_cycle;Max_cycle;Signal;HPM_P1;HPM_P2
2022/08/18 00:01:31;;;;;;;6.63;3.22;;;26.70;51.90;;;;;;5012967;28;20458;-82
2022/08/18 00:03:58;;;;;;;4.47;3.30;;;26.70;51.80;;;;;;5013563;28;20053;-79
2022/08/18 00:06:24;;;;;;;7.15;3.63;;;26.70;51.90;;;;;;5013500;28;20030;-79
2022/08/18 00:08:50;;;;;;;6.28;3.85;;;26.70;52.10;;;;;;5013475;28;20463;-79
2022/08/18 00:11:16;;;;;;;6.40;3.10;;;26.70;52.70;;;;;;4995862;28;20124;-79
2022/08/18 00:13:41;;;;;;;3.92;3.00;;;26.60;52.40;;;;;;5013114;28;20022;-78
2022/08/18 00:16:07;;;;;;;9.77;2.88;;;26.60;52.50;;;;;;5013578;28;20414;-79
2022/08/18 00:18:32;;;;;;;4.75;3.30;;;26.60;52.40;;;;;;5012586;28;20029;-79
2022/08/18 00:21:01;;;;;;;5.22;3.47;;;26.50;52.40;;;;;;5010344;28;20057;-79
2022/08/18 00:23:27;;;;;;;7.55;3.38;;;26.50;52.40;;;;;;4995413;28;20470;-79
2022/08/18 00:25:54;;;;;;;6.57;2.78;;;26.50;52.70;;;;;;5012595;28;20075;-79
2022/08/18 00:28:20;;;;;;;4.20;2.67;;;26.50;52.40;;;;;;5012484;28;20084;-79
2022/08/18 00:30:45;;;;;;;5.32;3.50;;;26.30;52.40;;;;;;5012215;28;20030;-79
2022/08/18 00:33:11;;;;;;;5.18;3.80;;;26.20;52.50;;;;;;5012845;28;20430;-78
2022/08/18 00:35:38;;;;;;;5.93;2.70;;;26.20;52.80;;;;;;5012092;28;20026;-79
2022/08/18 00:38:06;;;;;;;3.90;2.97;;;26.20;53.10;;;;;;5012760;28;20145;-79
2022/08/18 00:40:39;;;;;;;4.88;3.33;;;26.20;53.00;;;;;;5012517;28;20030;-85
2022/08/18 00:43:11;;;;;;;5.18;3.20;;;26.10;52.80;;;;;;4995539;28;20418;-79
2022/08/18 00:45:40;;;;;;;6.47;3.28;;;26.00;52.90;;;;;;5012341;28;20038;-79
2022/08/18 00:48:07;;;;;;;4.07;3.00;;;26.00;53.10;;;;;;5012579;28;20518;-79
2022/08/18 00:50:43;;;;;;;4.97;3.13;;;26.00;53.00;;;;;;5000025;28;20042;-80
2022/08/18 00:53:16;;;;;;;6.97;3.50;;;25.90;53.10;;;;;;4993257;28;20027;-79
2022/08/18 00:55:47;;;;;;;3.80;2.58;;;25.90;53.00;;;;;;4975219;28;20105;-80
2022/08/18 00:58:29;;;;;;;4.82;3.22;;;25.90;53.50;;;;;;4993096;28;20037;-79
2022/08/18 01:00:55;;;;;;;3.75;2.95;;;25.90;53.60;;;;;;4992392;28;20458;-79
2022/08/18 01:03:22;;;;;;;5.53;3.25;;;25.90;53.60;;;;;;4994030;28;20034;-79
2022/08/18 01:06:04;;;;;;;5.22;3.13;;;25.90;53.90;;;;;;4992481;28;20088;-80
2022/08/18 01:08:30;;;;;;;4.40;2.97;;;25.80;54.10;;;;;;4995377;28;20018;-79
2022/08/18 01:11:01;;;;;;;5.88;3.63;;;25.80;54.30;;;;;;4992828;28;20126;-79
2022/08/18 01:13:28;;;;;;;;;;;25.70;54.30;;;;;;4993629;28;20026;-80
2022/08/18 01:15:54;;;;;;;6.25;3.10;;;25.70;54.40;;;;;;4992610;28;19910;-80
2022/08/18 01:27:30;;;;;;;6.03;3.97;;;25.60;54.40;;;;;;4882849;29;20041;-80
2022/08/18 01:30:01;;;;;;;3.55;2.72;;;25.60;54.30;;;;;;4932575;29;20134;-80
2022/08/18 01:32:26;;;;;;;5.25;2.40;;;25.60;54.20;;;;;;4933094;29;20120;-80
2022/08/18 01:34:53;;;;;;;3.65;2.80;;;25.60;54.10;;;;;;4932212;29;20502;-80
2022/08/18 01:37:21;;;;;;;6.32;2.60;;;25.60;54.10;;;;;;4932375;29;20068;-80
2022/08/18 01:39:47;;;;;;;5.95;2.75;;;25.50;54.20;;;;;;4931839;29;20546;-80
2022/08/18 01:42:17;;;;;;;4.38;3.05;;;25.50;54.60;;;;;;4932436;29;20054;-80
2022/08/18 01:44:47;;;;;;;9.77;2.65;;;25.50;54.70;;;;;;4932248;29;20052;-81
2022/08/18 01:47:13;;;;;;;6.68;2.80;;;25.50;54.70;;;;;;4932946;29;20060;-80
2022/08/18 01:49:42;;;;;;;2.97;2.65;;;25.50;54.50;;;;;;4919661;29;20043;-80
2022/08/18 01:52:12;;;;;;;4.72;2.90;;;25.50;54.50;;;;;;4936422;29;20047;-81
2022/08/18 01:54:39;;;;;;;5.55;2.85;;;25.40;54.80;;;;;;4953965;28;20030;-82
2022/08/18 01:57:05;;;;;;;3.95;3.15;;;25.40;54.90;;;;;;4996268;28;20057;-80
2022/08/18 01:59:31;;;;;;;5.03;3.03;;;25.50;54.80;;;;;;4996445;28;20081;-80
2022/08/18 02:01:57;;;;;;;3.88;2.67;;;25.40;55.00;;;;;;4995894;28;20396;-80
2022/08/18 02:04:31;;;;;;;3.72;2.90;;;25.40;55.20;;;;;;4996245;28;20058;-80
2022/08/18 02:06:57;;;;;;;3.80;2.78;;;25.40;55.00;;;;;;4995460;28;20061;-81
2022/08/18 02:09:22;;;;;;;3.83;2.60;;;25.30;55.40;;;;;;4995982;28;20065;-81
2022/08/18 02:11:48;;;;;;;2.55;2.22;;;25.30;55.50;;;;;;4995395;28;20039;-81
2022/08/18 02:14:14;;;;;;;3.92;2.88;;;25.30;55.50;;;;;;4996183;28;20332;-81
2022/08/18 02:16:39;;;;;;;5.43;2.83;;;25.30;55.80;;;;;;4996050;28;20041;-88
2022/08/18 02:19:05;;;;;;;4.13;3.08;;;25.30;56.20;;;;;;4995698;28;20437;-80
2022/08/18 02:21:31;;;;;;;8.73;2.90;;;25.20;56.60;;;;;;4996133;28;20030;-80
2022/08/18 02:23:56;;;;;;;4.50;2.95;;;25.20;56.90;;;;;;4995091;28;20399;-81
2022/08/18 02:26:22;;;;;;;5.15;2.60;;;25.10;56.80;;;;;;4998119;28;20027;-80
2022/08/18 02:28:48;;;;;;;5.65;3.00;;;25.10;57.00;;;;;;4995563;28;20463;-81
2022/08/18 02:31:17;;;;;;;4.93;2.85;;;25.10;56.90;;;;;;4995803;28;20030;-81
2022/08/18 02:33:44;;;;;;;3.97;2.78;;;25.00;57.80;;;;;;4995324;28;20031;-81
2022/08/18 02:36:11;;;;;;;5.38;2.83;;;24.90;57.30;;;;;;4995759;28;20074;-80
2022/08/18 02:38:36;;;;;;;7.07;3.58;;;24.90;57.50;;;;;;4995707;28;20034;-80
2022/08/18 02:41:05;;;;;;;4.13;2.85;;;24.80;57.80;;;;;;4995246;28;20047;-80
2022/08/18 02:43:31;;;;;;;3.25;2.85;;;24.70;58.00;;;;;;4978115;28;20031;-80
2022/08/18 02:45:57;;;;;;;4.45;2.40;;;24.70;57.70;;;;;;4995483;28;20023;-80
2022/08/18 02:48:33;;;;;;;3.53;2.85;;;24.70;58.20;;;;;;4995606;28;20106;-80
2022/08/18 02:51:07;;;;;;;4.35;3.00;;;24.70;57.80;;;;;;4994975;28;20023;-80
2022/08/18 02:53:34;;;;;;;4.03;2.80;;;24.60;57.80;;;;;;4995137;28;20030;-80
2022/08/18 02:58:46;;;;;;;9.43;2.88;;;24.60;57.70;;;;;;4994242;28;20426;-81
2022/08/18 03:01:12;;;;;;;3.63;2.65;;;24.60;57.80;;;;;;5013204;28;20033;-80
2022/08/18 03:03:38;;;;;;;3.63;2.92;;;24.50;58.20;;;;;;5014927;28;20021;-80
2022/08/18 03:06:04;;;;;;;5.13;2.42;;;24.50;58.10;;;;;;4996342;28;20068;-80
2022/08/18 03:08:29;;;;;;;4.07;2.65;;;24.50;58.40;;;;;;5014019;28;20099;-80
2022/08/18 03:10:55;;;;;;;3.50;2.65;;;24.50;58.80;;;;;;5014111;28;20530;-80
2022/08/18 03:13:21;;;;;;;4.35;2.95;;;24.40;58.80;;;;;;5014458;28;20383;-80
2022/08/18 03:15:47;;;;;;;6.38;2.65;;;24.40;58.60;;;;;;5014001;28;20029;-80
2022/08/18 03:18:13;;;;;;;4.22;3.17;;;24.50;58.80;;;;;;5014375;28;20026;-80
2022/08/18 03:20:39;;;;;;;3.33;2.58;;;24.40;58.90;;;;;;5014508;28;20088;-79
2022/08/18 03:23:05;;;;;;;4.10;2.65;;;24.50;58.70;;;;;;5013948;28;20125;-81
2022/08/18 03:25:31;;;;;;;3.50;3.00;;;24.40;59.30;;;;;;5014026;28;20116;-79
2022/08/18 03:27:57;;;;;;;4.45;2.88;;;24.50;59.10;;;;;;5013915;28;20030;-81
2022/08/18 03:30:22;;;;;;;5.30;3.67;;;24.40;59.40;;;;;;5013948;28;20033;-80
2022/08/18 03:32:49;;;;;;;4.32;2.92;;;24.40;59.10;;;;;;5014165;28;20034;-81
2022/08/18 03:35:15;;;;;;;5.45;2.90;;;24.40;59.10;;;;;;5014133;28;20026;-81
2022/08/18 03:37:41;;;;;;;5.25;3.53;;;24.40;59.30;;;;;;5013837;28;20479;-80
2022/08/18 03:40:09;;;;;;;8.43;3.15;;;24.30;60.20;;;;;;5013757;28;20091;-81
2022/08/18 03:42:35;;;;;;;5.88;3.47;;;24.30;60.20;;;;;;5014177;28;20083;-81
2022/08/18 03:45:01;;;;;;;3.88;3.28;;;24.30;59.90;;;;;;4979887;28;20117;-81
2022/08/18 03:47:26;;;;;;;5.57;3.15;;;24.30;59.40;;;;;;5013762;28;20493;-81
2022/08/18 03:49:52;;;;;;;3.95;3.50;;;24.30;59.40;;;;;;5013530;28;20104;-82
2022/08/18 03:52:18;;;;;;;6.13;3.17;;;24.30;59.70;;;;;;4996052;28;20371;-81
2022/08/18 03:54:45;;;;;;;4.05;3.17;;;24.20;59.80;;;;;;5013533;28;20054;-81
2022/08/18 03:57:11;;;;;;;4.53;3.15;;;24.30;59.70;;;;;;5013673;28;20040;-81
2022/08/18 03:59:40;;;;;;;4.65;2.95;;;24.20;59.90;;;;;;4996828;28;20034;-80
2022/08/18 04:02:06;;;;;;;3.33;2.88;;;24.20;60.10;;;;;;5013021;28;20113;-81
2022/08/18 04:04:32;;;;;;;4.03;3.03;;;24.20;60.40;;;;;;5013624;28;20033;-80
2022/08/18 04:07:03;;;;;;;3.88;2.72;;;24.20;60.20;;;;;;4995348;28;20363;-81
2022/08/18 04:09:31;;;;;;;8.52;3.25;;;24.30;60.40;;;;;;4996386;28;20109;-81
2022/08/18 04:12:01;;;;;;;6.13;3.40;;;24.30;60.20;;;;;;4994540;28;20477;-82
2022/08/18 04:14:30;;;;;;;5.32;3.30;;;24.30;60.40;;;;;;5013735;28;20095;-80
2022/08/18 04:16:57;;;;;;;5.60;3.25;;;24.30;60.30;;;;;;5012566;28;20410;-81
2022/08/18 04:19:22;;;;;;;5.63;3.70;;;24.30;60.00;;;;;;4995485;28;20080;-80
2022/08/18 04:21:51;;;;;;;5.60;3.33;;;24.40;60.10;;;;;;5007073;28;20463;-80
2022/08/18 04:24:17;;;;;;;5.18;2.70;;;24.40;59.90;;;;;;5001485;28;20460;-80
2022/08/18 04:26:45;;;;;;;6.07;2.90;;;24.50;60.20;;;;;;4984581;28;20026;-80
2022/08/18 04:29:13;;;;;;;4.82;3.63;;;24.50;59.80;;;;;;5009866;28;20026;-81
2022/08/18 04:31:42;;;;;;;4.47;3.67;;;24.50;60.10;;;;;;5013136;28;20040;-80
2022/08/18 04:34:08;;;;;;;4.15;3.28;;;24.60;60.00;;;;;;4991093;28;20030;-80
2022/08/18 04:36:35;;;;;;;4.03;3.40;;;24.50;60.20;;;;;;5013299;28;20033;-80
2022/08/18 04:39:03;;;;;;;4.57;3.22;;;24.60;60.10;;;;;;4997315;28;20058;-80
2022/08/18 04:41:30;;;;;;;3.30;3.00;;;24.70;59.70;;;;;;5011318;28;20390;-81
2022/08/18 04:43:58;;;;;;;4.03;3.00;;;24.70;60.10;;;;;;5012367;28;20131;-81
2022/08/18 04:46:25;;;;;;;6.15;3.78;;;24.70;60.60;;;;;;4995549;28;20030;-80
2022/08/18 04:48:55;;;;;;;3.78;3.22;;;24.80;60.40;;;;;;5013217;28;20026;-80
2022/08/18 04:51:20;;;;;;;6.65;3.58;;;24.90;60.40;;;;;;5003680;28;20030;-80
2022/08/18 04:53:47;;;;;;;3.67;3.30;;;25.00;60.20;;;;;;4993486;28;20031;-79
2022/08/18 04:56:32;;;;;;;7.00;3.80;;;25.00;60.00;;;;;;5010085;28;20394;-79
2022/08/18 04:59:00;;;;;;;6.25;3.53;;;25.10;60.10;;;;;;5012752;28;20036;-80
2022/08/18 05:01:34;;;;;;;6.13;3.42;;;25.10;60.30;;;;;;5012827;28;20038;-80
2022/08/18 05:04:00;;;;;;;6.47;3.75;;;25.10;60.60;;;;;;5012948;28;20084;-80
2022/08/18 05:06:27;;;;;;;4.63;3.67;;;25.20;60.10;;;;;;4994365;28;20471;-82
2022/08/18 05:08:58;;;;;;;5.18;3.30;;;25.20;60.30;;;;;;5012463;28;20061;-81
2022/08/18 05:11:32;;;;;;;4.68;3.42;;;25.30;60.00;;;;;;5010859;28;20034;-79
2022/08/18 05:13:59;;;;;;;4.72;3.25;;;25.40;59.70;;;;;;4974707;28;20467;-82
2022/08/18 05:16:26;;;;;;;10.82;4.18;;;25.50;59.70;;;;;;4992111;28;20460;-80
2022/08/18 05:18:52;;;;;;;4.70;3.75;;;25.50;59.50;;;;;;4992365;28;20113;-80
2022/08/18 05:21:19;;;;;;;4.28;3.17;;;25.60;59.50;;;;;;4974846;28;20035;-80
2022/08/18 05:23:47;;;;;;;4.07;3.42;;;25.70;59.40;;;;;;4995005;28;20037;-81
2022/08/18 05:26:14;;;;;;;4.03;3.17;;;25.70;59.20;;;;;;4996555;28;20145;-80
2022/08/18 05:28:43;;;;;;;4.25;3.20;;;25.70;59.20;;;;;;4996374;28;20583;-81
2022/08/18 05:31:19;;;;;;;4.18;3.50;;;25.80;59.10;;;;;;4979277;28;20105;-79
2022/08/18 05:33:46;;;;;;;4.57;3.47;;;25.90;58.80;;;;;;4997010;28;20026;-81
2022/08/18 05:36:17;;;;;;;8.65;3.63;;;26.00;59.00;;;;;;4996839;28;20026;-81
2022/08/18 05:39:05;;;;;;;4.95;2.85;;;26.00;58.50;;;;;;4996593;28;20058;-80
2022/08/18 05:41:37;;;;;;;4.75;3.50;;;26.10;58.70;;;;;;4997256;28;20093;-80
2022/08/18 05:44:05;;;;;;;4.50;3.38;;;26.20;58.00;;;;;;4996611;28;20026;-81
2022/08/18 05:46:44;;;;;;;4.78;3.40;;;26.30;57.80;;;;;;4996824;28;20033;-80
2022/08/18 05:49:12;;;;;;;5.10;3.40;;;26.50;57.60;;;;;;4996905;28;20077;-79
2022/08/18 05:51:48;;;;;;;6.05;3.03;;;26.60;57.00;;;;;;4979386;28;20041;-79
2022/08/18 05:57:05;;;;;;;3.63;2.83;;;27.00;55.90;;;;;;4996431;28;20041;-80
2022/08/18 05:59:34;;;;;;;3.25;2.67;;;27.10;55.60;;;;;;4996667;28;20128;-79
2022/08/18 06:02:34;;;;;;;4.70;3.50;;;27.30;55.30;;;;;;4996516;28;20104;-83
2022/08/18 06:05:05;;;;;;;4.13;3.28;;;27.70;54.40;;;;;;4996513;28;20038;-81
2022/08/18 06:07:52;;;;;;;5.07;2.80;;;28.00;53.20;;;;;;4996571;28;20026;-80
2022/08/18 06:10:18;;;;;;;3.60;2.45;;;28.60;52.80;;;;;;4978523;28;20061;-80
2022/08/18 06:12:49;;;;;;;3.80;2.80;;;29.10;51.10;;;;;;4978301;28;20073;-80
2022/08/18 06:15:23;;;;;;;2.72;2.53;;;29.80;49.20;;;;;;4995988;28;20066;-79
2022/08/18 06:18:29;;;;;;;5.53;2.70;;;30.20;48.20;;;;;;4995679;28;20023;-79
2022/08/18 06:21:10;;;;;;;5.18;2.78;;;30.50;47.40;;;;;;4990722;28;20050;-80
2022/08/18 06:23:42;;;;;;;2.60;2.40;;;30.60;47.40;;;;;;4978391;28;20373;-79
2022/08/18 06:26:40;;;;;;;2.65;2.33;;;30.80;47.10;;;;;;4995531;28;20104;-80
2022/08/18 06:29:19;;;;;;;4.15;2.63;;;30.90;46.70;;;;;;4995808;28;20026;-80
2022/08/18 06:32:17;;;;;;;3.73;2.67;;;31.10;45.60;;;;;;4996030;28;20026;-80
2022/08/18 06:34:51;;;;;;;3.05;2.55;;;31.10;45.60;;;;;;4910440;28;20547;-79
2022/08/18 06:37:21;;;;;;;2.30;2.10;;;31.20;45.60;;;;;;4998587;28;20586;-80
2022/08/18 06:39:49;;;;;;;2.83;2.25;;;31.40;45.50;;;;;;4995638;28;20064;-78
2022/08/18 06:42:20;;;;;;;2.97;1.90;;;31.50;45.40;;;;;;4995636;28;20106;-78
2022/08/18 06:44:52;;;;;;;6.75;2.53;;;31.60;45.00;;;;;;4995597;28;20022;-79
2022/08/18 06:47:36;;;;;;;3.20;2.28;;;31.80;45.20;;;;;;4995319;28;20069;-78
2022/08/18 06:50:07;;;;;;;4.90;2.60;;;32.00;45.00;;;;;;4995354;28;20030;-80
2022/08/18 06:52:52;;;;;;;3.47;2.60;;;32.00;45.00;;;;;;4995475;28;20038;-78
2022/08/18 06:55:29;;;;;;;3.65;2.38;;;32.10;44.40;;;;;;4994882;28;20027;-78
2022/08/18 06:57:58;;;;;;;3.33;2.60;;;32.30;44.50;;;;;;4995236;28;20027;-78
2022/08/18 07:00:27;;;;;;;2.60;2.38;;;32.40;43.80;;;;;;4994718;28;20030;-78
2022/08/18 07:03:06;;;;;;;2.95;2.28;;;32.80;43.20;;;;;;4995112;28;20041;-78
2022/08/18 07:05:35;;;;;;;2.92;2.28;;;33.20;42.80;;;;;;4995132;28;20026;-78
2022/08/18 07:08:10;;;;;;;4.15;2.05;;;33.60;42.20;;;;;;4977384;28;20360;-79
2022/08/18 07:10:40;;;;;;;3.20;2.42;;;34.30;42.20;;;;;;4995231;28;20352;-80
2022/08/18 07:13:18;;;;;;;2.92;2.58;;;35.00;40.80;;;;;;4994585;28;20053;-79
2022/08/18 07:15:46;;;;;;;3.20;2.40;;;35.60;39.70;;;;;;4995410;28;20034;-79
2022/08/18 07:18:14;;;;;;;3.10;2.22;;;35.80;38.60;;;;;;4977438;28;20117;-80
2022/08/18 07:20:44;;;;;;;4.80;2.47;;;36.40;38.40;;;;;;4994675;28;20042;-80
2022/08/18 07:23:21;;;;;;;;;;;37.00;37.40;;;;;;4995279;28;20043;-80
2022/08/18 07:25:51;;;;;;;2.55;2.35;;;37.80;37.20;;;;;;4994721;28;19956;-80
2022/08/18 07:28:37;;;;;;;;;;;38.90;35.30;;;;;;4995130;28;20026;-80
2022/08/18 07:31:33;;;;;;;3.88;2.60;;;39.50;34.50;;;;;;4994729;28;20425;-80
2022/08/18 07:34:03;;;;;;;4.35;2.58;;;40.30;33.70;;;;;;4995313;28;20042;-80
2022/08/18 07:36:36;;;;;;;2.97;2.50;;;40.80;33.00;;;;;;4977982;28;20080;-80
2022/08/18 07:39:14;;;;;;;2.55;2.28;;;41.30;32.70;;;;;;4995003;28;20027;-79
2022/08/18 07:41:51;;;;;;;2.97;2.15;;;41.90;32.10;;;;;;4995023;28;20035;-80
2022/08/18 07:44:50;;;;;;;3.70;2.63;;;42.20;31.50;;;;;;4994584;28;20030;-81
2022/08/18 07:47:22;;;;;;;;;;;42.30;31.30;;;;;;4994555;28;20100;-80
2022/08/18 07:49:48;;;;;;;5.72;2.75;;;42.20;31.00;;;;;;4994386;28;19964;-81
2022/08/18 07:52:43;;;;;;;5.57;2.65;;;42.50;31.30;;;;;;4994316;28;20471;-79
2022/08/18 07:55:26;;;;;;;2.83;2.33;;;42.40;31.30;;;;;;4971547;28;20092;-81
2022/08/18 07:58:17;;;;;;;2.90;2.35;;;42.80;31.30;;;;;;4994329;28;20026;-80
2022/08/18 08:01:03;;;;;;;2.88;2.53;;;43.20;30.80;;;;;;4994366;28;20031;-80
2022/08/18 08:03:50;;;;;;;4.53;2.20;;;43.40;30.40;;;;;;4993788;28;20038;-80
2022/08/18 08:06:40;;;;;;;3.83;2.40;;;43.50;30.00;;;;;;4993854;28;20463;-81
2022/08/18 08:09:21;;;;;;;2.10;1.90;;;43.80;29.80;;;;;;4993727;28;20033;-81
2022/08/18 08:12:03;;;;;;;2.63;2.20;;;43.80;29.40;;;;;;4994160;28;20038;-81
2022/08/18 08:14:42;;;;;;;2.55;2.00;;;44.00;30.00;;;;;;4994238;28;20037;-81
2022/08/18 08:17:23;;;;;;;3.05;2.20;;;44.70;29.10;;;;;;4994481;28;20113;-80
2022/08/18 08:19:56;;;;;;;4.55;2.75;;;45.10;28.70;;;;;;4976460;28;20499;-79
2022/08/18 08:22:34;;;;;;;2.60;2.28;;;45.30;28.80;;;;;;4993539;28;20053;-79
2022/08/18 08:25:06;;;;;;;3.78;2.35;;;45.60;28.20;;;;;;4994110;28;20058;-80
2022/08/18 08:27:37;;;;;;;2.63;2.20;;;46.20;28.50;;;;;;4993958;28;20073;-81
2022/08/18 08:30:13;;;;;;;1.98;1.80;;;46.70;28.00;;;;;;4993596;28;20050;-80
2022/08/18 08:32:50;;;;;;;2.38;2.17;;;47.00;27.70;;;;;;4993430;28;20383;-79
2022/08/18 08:35:29;;;;;;;2.35;2.10;;;47.50;27.60;;;;;;4993198;28;20030;-80
2022/08/18 08:37:59;;;;;;;5.80;2.00;;;47.80;27.30;;;;;;4999405;28;20026;-79
2022/08/18 08:40:45;;;;;;;3.60;2.17;;;47.80;27.20;;;;;;4992688;28;20526;-81
2022/08/18 08:43:15;;;;;;;2.78;2.30;;;47.80;27.10;;;;;;5002646;28;20076;-85
2022/08/18 08:45:50;;;;;;;3.03;2.30;;;47.70;27.30;;;;;;5012821;28;20024;-80
2022/08/18 08:48:24;;;;;;;3.88;2.20;;;46.70;27.50;;;;;;5012577;28;20017;-81
2022/08/18 08:51:11;;;;;;;3.25;2.20;;;46.10;28.00;;;;;;5012882;28;20054;-80
2022/08/18 08:53:48;;;;;;;3.22;2.30;;;45.40;28.10;;;;;;5012288;28;20053;-80
2022/08/18 08:56:16;;;;;;;5.57;2.42;;;44.80;28.60;;;;;;5012472;28;20109;-82
2022/08/18 08:58:48;;;;;;;3.17;2.13;;;44.30;29.00;;;;;;5012556;28;20031;-80
2022/08/18 09:01:45;;;;;;;3.63;2.20;;;44.30;29.20;;;;;;5012190;28;20061;-81
2022/08/18 09:04:41;;;;;;;2.83;2.53;;;43.90;29.30;;;;;;5012810;28;20107;-79
2022/08/18 09:07:07;;;;;;;4.10;2.50;;;43.80;29.10;;;;;;5012783;28;20045;-79
2022/08/18 09:10:06;;;;;;;4.57;2.30;;;43.60;29.10;;;;;;5012089;28;20030;-80
2022/08/18 09:12:35;;;;;;;3.58;2.45;;;42.90;29.80;;;;;;5012700;28;20026;-79
2022/08/18 09:15:26;;;;;;;2.50;2.30;;;41.30;30.20;;;;;;5012883;28;20041;-79
2022/08/18 09:17:57;;;;;;;3.75;2.78;;;40.30;31.00;;;;;;5012971;28;20452;-79
2022/08/18 09:20:49;;;;;;;5.35;2.38;;;39.60;32.00;;;;;;5011921;28;20104;-79
2022/08/18 09:23:26;;;;;;;2.75;2.20;;;39.00;32.80;;;;;;5012395;28;20042;-81
2022/08/18 09:26:01;;;;;;;4.15;2.67;;;38.50;34.10;;;;;;5012304;28;20030;-79
2022/08/18 09:28:27;;;;;;;5.18;2.80;;;38.20;34.40;;;;;;5012120;28;20451;-79
2022/08/18 09:31:04;;;;;;;5.18;2.45;;;38.00;34.60;;;;;;5012648;28;20054;-79
2022/08/18 09:33:33;;;;;;;5.68;3.38;;;37.70;34.90;;;;;;5012305;28;20033;-79
2022/08/18 09:36:27;;;;;;;4.57;2.30;;;37.70;35.70;;;;;;5012645;28;20022;-79
2022/08/18 09:41:52;;;;;;;3.13;2.72;;;37.40;35.50;;;;;;5012158;28;20453;-79
2022/08/18 09:44:45;;;;;;;3.55;2.60;;;37.40;36.70;;;;;;5012290;28;20034;-79
2022/08/18 09:47:20;;;;;;;3.33;2.55;;;37.20;36.40;;;;;;5012384;28;20026;-79
2022/08/18 09:49:56;;;;;;;3.72;2.30;;;37.00;36.30;;;;;;5012655;28;20097;-79
2022/08/18 09:52:22;;;;;;;5.95;3.20;;;36.80;36.40;;;;;;5012022;28;20026;-79
2022/08/18 09:55:16;;;;;;;5.75;2.42;;;36.50;36.80;;;;;;5012330;28;20474;-79
2022/08/18 09:57:44;;;;;;;3.47;2.47;;;36.40;37.10;;;;;;5010525;28;20026;-79
2022/08/18 10:00:13;;;;;;;4.93;2.33;;;36.30;37.80;;;;;;5012120;28;20030;-78
2022/08/18 10:02:40;;;;;;;3.33;3.03;;;36.20;37.50;;;;;;5011591;28;20030;-78
2022/08/18 10:05:15;;;;;;;3.97;2.67;;;36.00;37.70;;;;;;5011837;28;20117;-78
2022/08/18 10:08:07;;;;;;;3.70;2.50;;;35.60;38.10;;;;;;5011520;28;20053;-79
2022/08/18 10:11:03;;;;;;;3.53;2.38;;;35.80;38.80;;;;;;5000552;28;20140;-78
2022/08/18 10:13:39;;;;;;;3.33;2.40;;;35.90;38.30;;;;;;5014808;28;20080;-79
2022/08/18 10:16:20;;;;;;;3.58;2.40;;;36.00;38.10;;;;;;4998512;28;20370;-79
2022/08/18 10:18:52;;;;;;;;;;;36.00;38.00;;;;;;5015526;28;20550;-79
2022/08/18 10:21:21;;;;;;;2.72;2.28;;;36.00;38.50;;;;;;5014846;28;20036;-83
2022/08/18 10:24:01;;;;;;;4.07;2.63;;;36.00;38.50;;;;;;5015304;28;20061;-79
2022/08/18 10:26:30;;;;;;;3.50;2.55;;;36.00;38.20;;;;;;5015010;28;20494;-79
2022/08/18 10:28:55;;;;;;;4.55;2.60;;;36.00;38.00;;;;;;5015068;28;20137;-79
2022/08/18 10:31:22;;;;;;;4.13;2.78;;;36.00;38.30;;;;;;5014793;28;20375;-79
2022/08/18 10:34:03;;;;;;;9.63;2.70;;;35.90;39.20;;;;;;5015019;28;20076;-79
2022/08/18 10:36:54;;;;;;;4.30;2.67;;;36.00;39.20;;;;;;5014629;28;20095;-79
2022/08/18 10:39:38;;;;;;;4.25;2.55;;;36.00;38.70;;;;;;5013930;28;20034;-80
2022/08/18 10:42:13;;;;;;;3.63;2.72;;;36.00;38.30;;;;;;5011574;28;20037;-79
2022/08/18 10:44:49;;;;;;;3.15;2.60;;;35.90;38.30;;;;;;5014552;28;20068;-79
2022/08/18 10:47:28;;;;;;;3.85;2.80;;;35.90;38.60;;;;;;5014737;28;20398;-78
2022/08/18 10:49:54;;;;;;;2.75;2.40;;;35.90;38.90;;;;;;5014678;28;20104;-80
2022/08/18 10:53:03;;;;;;;4.28;2.47;;;36.00;38.60;;;;;;5014287;28;20026;-86
2022/08/18 10:55:40;;;;;;;2.97;2.30;;;35.90;38.40;;;;;;5013504;28;20042;-79
2022/08/18 10:58:16;;;;;;;3.80;2.03;;;35.90;38.90;;;;;;5014576;28;20030;-78
2022/08/18 11:01:13;;;;;;;3.75;2.40;;;36.00;39.20;;;;;;5013972;28;20054;-78
2022/08/18 11:03:58;;;;;;;2.97;2.17;;;36.00;39.00;;;;;;5013964;28;20117;-79
2022/08/18 11:06:24;;;;;;;4.90;2.58;;;36.00;38.50;;;;;;4998457;28;20076;-79
2022/08/18 11:08:54;;;;;;;3.30;2.40;;;36.10;38.80;;;;;;5014372;28;20025;-79
2022/08/18 11:11:25;;;;;;;2.97;2.40;;;35.90;38.20;;;;;;5014756;28;20136;-79
2022/08/18 11:14:11;;;;;;;;;;;35.80;38.60;;;;;;5014944;28;20494;-79
2022/08/18 11:16:52;;;;;;;2.15;1.95;;;35.70;38.70;;;;;;5013999;28;19910;-79
2022/08/18 11:19:21;;;;;;;5.75;2.42;;;35.70;38.60;;;;;;5012061;28;20142;-79
2022/08/18 11:21:49;;;;;;;3.65;2.15;;;35.80;38.60;;;;;;5013746;28;20045;-79
2022/08/18 11:24:16;;;;;;;6.18;2.70;;;35.80;37.40;;;;;;5014472;28;20116;-79
2022/08/18 11:26:57;;;;;;;6.75;2.38;;;35.90;37.70;;;;;;5013803;28;20036;-80
2022/08/18 11:29:22;;;;;;;3.67;2.35;;;35.90;37.20;;;;;;5013944;28;20048;-82
2022/08/18 11:31:52;;;;;;;5.97;2.13;;;35.70;37.00;;;;;;5014047;28;20129;-79
2022/08/18 11:34:24;;;;;;;5.55;2.08;;;35.80;37.20;;;;;;5014100;28;20062;-80
2022/08/18 11:37:04;;;;;;;2.88;1.92;;;35.80;37.20;;;;;;5014043;28;20030;-79
2022/08/18 11:39:30;;;;;;;5.40;2.07;;;35.80;37.00;;;;;;4996182;28;20022;-79
2022/08/18 11:41:56;;;;;;;3.42;2.25;;;35.70;37.00;;;;;;5013948;28;20037;-79
2022/08/18 11:44:30;;;;;;;4.70;1.73;;;35.80;37.60;;;;;;5013809;28;20026;-79
2022/08/18 11:47:19;;;;;;;5.80;2.17;;;35.90;36.50;;;;;;5013994;28;20072;-79
2022/08/18 11:50:08;;;;;;;2.03;1.83;;;35.90;35.30;;;;;;5013378;28;20026;-79
2022/08/18 11:52:47;;;;;;;2.38;2.03;;;36.00;35.40;;;;;;5013615;28;20498;-79
2022/08/18 11:55:20;;;;;;;2.78;1.98;;;36.00;35.60;;;;;;5013757;28;20030;-79
2022/08/18 11:57:54;;;;;;;2.85;1.67;;;36.00;34.80;;;;;;5013452;28;20022;-78
2022/08/18 12:00:41;;;;;;;1.98;1.75;;;36.00;34.70;;;;;;5013817;28;20040;-79
2022/08/18 12:03:18;;;;;;;2.17;1.80;;;35.90;35.60;;;;;;5013235;28;20038;-79
2022/08/18 12:05:53;;;;;;;4.40;2.38;;;35.90;35.60;;;;;;5012840;28;20030;-79
2022/08/18 12:08:29;;;;;;;3.95;2.00;;;35.90;35.80;;;;;;5013484;28;20355;-79
2022/08/18 12:11:23;;;;;;;4.25;1.90;;;35.80;35.70;;;;;;5014878;28;20032;-78
2022/08/18 12:14:02;;;;;;;4.07;1.70;;;35.80;35.80;;;;;;5012526;28;20380;-79
2022/08/18 12:16:38;;;;;;;4.10;1.77;;;35.60;35.90;;;;;;5012865;28;20112;-78
2022/08/18 12:19:10;;;;;;;2.03;1.60;;;35.60;36.10;;;;;;5013087;28;20030;-78
2022/08/18 12:21:42;;;;;;;1.75;1.60;;;35.40;35.80;;;;;;5012500;28;20494;-78
2022/08/18 12:24:19;;;;;;;2.97;1.67;;;35.30;36.00;;;;;;5012968;28;20110;-78
2022/08/18 12:26:46;;;;;;;1.63;1.38;;;35.20;36.30;;;;;;5012865;28;20030;-78
2022/08/18 12:29:11;;;;;;;2.33;1.80;;;35.10;36.50;;;;;;5013268;28;20072;-78
2022/08/18 12:31:38;;;;;;;3.22;1.63;;;35.00;36.70;;;;;;5012141;28;20033;-79
2022/08/18 12:34:03;;;;;;;3.05;2.03;;;34.90;37.10;;;;;;4998050;28;20128;-79
2022/08/18 12:36:29;;;;;;;2.58;1.67;;;34.90;36.60;;;;;;5000831;28;20120;-79
2022/08/18 12:38:55;;;;;;;2.60;1.83;;;34.80;37.20;;;;;;5003125;28;20025;-79
2022/08/18 12:41:22;;;;;;;2.88;1.80;;;34.70;37.70;;;;;;5001423;28;20030;-79
2022/08/18 12:43:48;;;;;;;3.20;1.80;;;34.60;37.70;;;;;;5004315;28;20022;-78
2022/08/18 12:46:14;;;;;;;3.25;1.73;;;34.60;37.40;;;;;;5001845;28;20456;-79
2022/08/18 12:48:39;;;;;;;4.03;2.35;;;34.60;37.80;;;;;;5004417;28;20023;-79
2022/08/18 12:51:07;;;;;;;2.17;1.55;;;34.60;37.70;;;;;;5011508;28;20084;-79
2022/08/18 12:53:32;;;;;;;3.90;2.25;;;34.50;37.50;;;;;;4993708;28;20100;-78
2022/08/18 12:55:59;;;;;;;3.40;1.52;;;34.40;37.00;;;;;;5009659;28;20467;-78
2022/08/18 12:58:26;;;;;;;2.10;1.55;;;34.40;37.10;;;;;;5012908;28;20478;-79
2022/08/18 13:00:51;;;;;;;2.83;1.60;;;34.30;37.20;;;;;;5009702;28;20113;-76
2022/08/18 13:03:18;;;;;;;3.25;1.42;;;34.30;37.40;;;;;;5012387;28;20049;-75
2022/08/18 13:05:44;;;;;;;4.05;1.98;;;34.30;37.60;;;;;;5012701;28;20109;-74
2022/08/18 13:08:18;;;;;;;2.85;1.85;;;34.30;37.90;;;;;;5012574;28;20025;-71
2022/08/18 13:10:43;;;;;;;5.90;1.95;;;34.30;37.80;;;;;;5012579;28;20034;-75
2022/08/18 13:13:09;;;;;;;2.28;1.40;;;34.30;37.50;;;;;;5012590;28;20145;-75
2022/08/18 13:15:35;;;;;;;3.35;1.83;;;34.30;37.20;;;;;;4997896;28;20057;-76
2022/08/18 13:18:02;;;;;;;3.05;1.08;;;34.30;37.00;;;;;;4993036;28;20034;-75
2022/08/18 13:20:28;;;;;;;4.63;2.30;;;34.30;36.80;;;;;;4993143;28;20541;-74
2022/08/18 13:22:53;;;;;;;4.63;1.63;;;34.30;36.70;;;;;;4992683;28;20117;-76
2022/08/18 13:25:19;;;;;;;1.98;1.48;;;34.20;36.70;;;;;;4993071;28;20026;-76
2022/08/18 13:27:45;;;;;;;2.50;1.40;;;34.20;36.70;;;;;;4992737;28;20378;-78
2022/08/18 13:30:14;;;;;;;3.17;1.90;;;34.20;36.70;;;;;;4992274;28;20026;-78
2022/08/18 13:32:40;;;;;;;3.42;1.67;;;34.20;36.40;;;;;;4992123;28;20041;-78